Time;durP1;ratioP1;P1;durP2;ratioP2;P2;SDS_P1;SDS_P2;PMS_P1;PMS_P2;Temp;Humidity;BMP_temperature;BMP_pressure;BME280_temperature;BME280_humidity;BME280_pressure;Samples;Min_cycle;Max_cycle;Signal;HPM_P1;HPM_P2
2023/11/02 00:01:16;;;;;;;1.40;0.63;;;13.30;88.30;;;;;;5027289;28;20468;-48
2023/11/02 00:03:45;;;;;;;1.93;0.70;;;13.30;88.40;;;;;;5027750;28;20441;-45
2023/11/02 00:06:28;;;;;;;1.43;0.60;;;13.30;88.40;;;;;;5030089;28;20451;-46
2023/11/02 00:09:34;;;;;;;3.43;1.07;;;13.30;89.60;;;;;;5025163;28;20450;-46
2023/11/02 00:12:05;;;;;;;3.83;0.90;;;13.30;88.40;;;;;;5027951;28;20448;-46
2023/11/02 00:14:41;;;;;;;1.20;0.60;;;13.30;88.40;;;;;;5028876;28;20463;-46
2023/11/02 00:17:49;;;;;;;1.70;0.70;;;13.30;88.30;;;;;;5008183;28;20454;-47
2023/11/02 00:20:34;;;;;;;1.00;0.50;;;13.20;88.40;;;;;;5027752;28;20471;-47
2023/11/02 00:23:05;;;;;;;2.90;1.03;;;13.30;88.60;;;;;;5007800;28;20459;-47
2023/11/02 00:25:49;;;;;;;2.83;0.90;;;13.30;88.50;;;;;;5007430;28;20469;-47
2023/11/02 00:28:19;;;;;;;2.20;1.20;;;13.20;88.40;;;;;;5029696;28;20424;-47
2023/11/02 00:30:48;;;;;;;1.70;1.00;;;13.30;88.60;;;;;;5028249;28;20848;-47
2023/11/02 00:33:17;;;;;;;1.87;1.00;;;13.20;88.50;;;;;;5026948;28;20448;-47
2023/11/02 00:35:48;;;;;;;3.13;0.77;;;13.30;88.60;;;;;;5027460;28;20486;-46
2023/11/02 00:38:18;;;;;;;4.00;1.17;;;13.30;88.50;;;;;;5026705;28;20486;-46
2023/11/02 00:40:47;;;;;;;1.60;1.03;;;13.20;88.40;;;;;;5027691;28;20482;-46
2023/11/02 00:43:14;;;;;;;1.70;0.90;;;13.30;88.40;;;;;;5003541;28;20498;-47
2023/11/02 00:45:43;;;;;;;2.17;0.80;;;13.20;88.30;;;;;;5027906;28;20476;-49
2023/11/02 00:48:19;;;;;;;2.10;0.67;;;13.20;88.10;;;;;;5027996;28;20952;-49
2023/11/02 00:51:24;;;;;;;2.13;0.70;;;13.20;88.10;;;;;;5026596;28;20568;-49
2023/11/02 00:53:55;;;;;;;1.87;0.70;;;13.20;87.90;;;;;;5017472;28;20456;-46
2023/11/02 00:56:27;;;;;;;3.77;0.80;;;13.20;87.80;;;;;;5029254;28;20460;-48
2023/11/02 00:58:56;;;;;;;1.80;0.80;;;13.20;87.80;;;;;;5026555;28;20428;-48
2023/11/02 01:01:27;;;;;;;1.37;0.67;;;13.20;87.90;;;;;;5028316;28;20468;-47
2023/11/02 01:03:56;;;;;;;1.33;0.70;;;13.20;87.90;;;;;;5022527;28;20442;-47
2023/11/02 01:06:30;;;;;;;1.70;0.77;;;13.20;88.00;;;;;;5028137;28;20467;-46
2023/11/02 01:09:00;;;;;;;1.90;0.80;;;13.20;87.90;;;;;;5024205;28;20445;-48
2023/11/02 01:11:33;;;;;;;3.00;1.00;;;13.20;87.90;;;;;;5023706;28;20962;-47
2023/11/02 01:14:13;;;;;;;1.27;0.70;;;13.20;87.70;;;;;;5003800;28;20453;-48
2023/11/02 01:16:48;;;;;;;2.93;0.80;;;13.20;87.80;;;;;;5028722;28;20467;-47
2023/11/02 01:19:53;;;;;;;1.50;0.93;;;13.20;87.80;;;;;;5022638;28;20815;-47
2023/11/02 01:22:49;;;;;;;2.30;0.80;;;13.20;87.80;;;;;;5027654;28;20488;-48
2023/11/02 01:25:18;;;;;;;2.20;0.70;;;13.20;87.80;;;;;;5025521;28;20505;-47
2023/11/02 01:27:47;;;;;;;2.03;0.60;;;13.20;87.90;;;;;;5027904;28;20943;-46
2023/11/02 01:31:00;;;;;;;2.00;0.90;;;13.20;88.20;;;;;;5027434;28;21075;-48
2023/11/02 01:33:58;;;;;;;2.10;0.63;;;13.20;88.10;;;;;;5023183;28;20444;-47
2023/11/02 01:36:36;;;;;;;3.27;0.90;;;13.20;88.10;;;;;;5027434;28;20486;-48
2023/11/02 01:39:37;;;;;;;1.53;0.70;;;13.20;88.10;;;;;;5024906;28;20530;-46
2023/11/02 01:42:11;;;;;;;1.90;0.70;;;13.20;87.90;;;;;;4978575;28;20454;-46
2023/11/02 01:44:44;;;;;;;1.57;0.60;;;13.20;88.10;;;;;;5027355;28;20452;-46
2023/11/02 01:47:27;;;;;;;2.70;0.90;;;13.20;88.20;;;;;;5027511;28;20779;-47
2023/11/02 01:50:04;;;;;;;4.03;0.90;;;13.20;88.30;;;;;;5026032;28;20457;-47
2023/11/02 01:52:58;;;;;;;1.50;0.70;;;13.20;88.30;;;;;;5026137;28;20445;-47
2023/11/02 01:55:44;;;;;;;1.47;0.70;;;13.20;88.20;;;;;;5007025;28;20949;-46
2023/11/02 01:58:26;;;;;;;2.40;0.80;;;13.20;88.30;;;;;;5009885;28;20429;-46
2023/11/02 02:01:01;;;;;;;1.67;0.70;;;13.20;88.30;;;;;;5009022;28;20480;-48
2023/11/02 02:03:38;;;;;;;2.03;0.70;;;13.20;88.20;;;;;;5006807;28;20502;-47
2023/11/02 02:06:14;;;;;;;2.73;1.17;;;13.20;88.30;;;;;;5026399;28;21081;-49
2023/11/02 02:08:57;;;;;;;1.80;0.60;;;13.20;88.30;;;;;;5006787;28;20622;-48
2023/11/02 02:11:39;;;;;;;3.70;1.00;;;13.20;88.30;;;;;;5009606;28;20531;-46
2023/11/02 02:14:18;;;;;;;1.60;0.70;;;13.20;88.30;;;;;;5007951;28;20461;-48
2023/11/02 02:16:55;;;;;;;1.47;0.80;;;13.20;88.30;;;;;;5026358;28;20476;-46
2023/11/02 02:19:50;;;;;;;4.20;1.00;;;13.20;88.00;;;;;;5024796;28;20972;-47
2023/11/02 02:22:25;;;;;;;1.23;0.60;;;13.20;88.30;;;;;;5003925;28;20532;-47
2023/11/02 02:25:03;;;;;;;6.20;1.03;;;13.20;88.40;;;;;;5025152;28;20461;-46
2023/11/02 02:27:58;;;;;;;1.10;0.53;;;13.20;88.20;;;;;;5027661;28;20432;-48
2023/11/02 02:30:55;;;;;;;1.97;0.80;;;13.20;88.20;;;;;;5026767;28;20504;-47
2023/11/02 02:33:48;;;;;;;2.23;1.00;;;13.20;88.10;;;;;;5022543;28;20897;-47
2023/11/02 02:36:21;;;;;;;2.10;0.67;;;13.10;88.00;;;;;;5026583;28;20463;-48
2023/11/02 02:38:52;;;;;;;1.13;0.63;;;13.20;88.10;;;;;;5006554;28;20436;-51
2023/11/02 02:41:23;;;;;;;1.20;0.63;;;13.10;87.80;;;;;;5026445;28;20895;-48
2023/11/02 02:43:53;;;;;;;1.33;0.63;;;13.10;88.00;;;;;;5028187;28;20813;-47
2023/11/02 02:46:23;;;;;;;1.57;0.63;;;13.10;88.10;;;;;;5030002;28;20476;-47
2023/11/02 02:48:51;;;;;;;2.57;0.77;;;13.10;87.90;;;;;;5029226;28;20460;-47
2023/11/02 02:51:22;;;;;;;2.80;0.87;;;13.10;87.90;;;;;;5013290;28;20444;-46
2023/11/02 02:53:52;;;;;;;3.07;0.83;;;13.10;88.20;;;;;;5029396;28;20445;-46
2023/11/02 02:56:23;;;;;;;1.40;0.50;;;13.10;88.30;;;;;;5013634;28;20471;-47
2023/11/02 02:58:57;;;;;;;3.10;0.80;;;13.10;88.20;;;;;;5030204;28;20445;-47
2023/11/02 03:01:29;;;;;;;3.20;0.60;;;13.10;88.10;;;;;;5029265;28;20467;-46
2023/11/02 03:03:58;;;;;;;4.50;1.17;;;13.10;88.20;;;;;;5011877;28;20446;-46
2023/11/02 03:06:29;;;;;;;3.20;1.13;;;13.10;88.00;;;;;;5029729;28;20449;-45
2023/11/02 03:09:00;;;;;;;3.20;0.80;;;13.10;88.00;;;;;;5027009;28;20440;-48
2023/11/02 03:11:31;;;;;;;1.90;1.00;;;13.10;88.00;;;;;;5029189;28;20445;-47
2023/11/02 03:14:04;;;;;;;1.50;1.00;;;13.10;87.90;;;;;;5032008;28;20853;-47
2023/11/02 03:16:36;;;;;;;2.23;0.97;;;13.10;87.90;;;;;;5028128;28;20467;-46
2023/11/02 03:19:06;;;;;;;2.37;0.50;;;13.10;87.90;;;;;;5028859;28;20444;-47
2023/11/02 03:21:36;;;;;;;2.80;0.63;;;13.10;87.60;;;;;;5011360;28;20476;-47
2023/11/02 03:24:10;;;;;;;3.00;0.70;;;13.10;87.70;;;;;;5028125;28;20844;-47
2023/11/02 03:26:53;;;;;;;3.10;0.90;;;13.10;87.60;;;;;;5031487;28;20535;-47
2023/11/02 03:29:27;;;;;;;2.37;0.80;;;13.10;87.60;;;;;;5010385;28;20612;-47
2023/11/02 03:32:04;;;;;;;2.53;0.80;;;13.10;87.50;;;;;;5029124;28;20786;-46
2023/11/02 03:34:41;;;;;;;1.50;0.93;;;13.10;87.30;;;;;;5026919;28;21044;-47
2023/11/02 03:37:19;;;;;;;2.50;0.80;;;13.10;87.50;;;;;;5026799;28;20437;-46
2023/11/02 03:40:02;;;;;;;2.10;0.60;;;13.10;87.00;;;;;;5024788;28;20482;-48
2023/11/02 03:42:40;;;;;;;5.40;1.13;;;13.10;87.10;;;;;;5028248;28;20841;-47
2023/11/02 03:45:17;;;;;;;2.00;1.03;;;13.10;86.80;;;;;;5028824;28;20838;-46
2023/11/02 03:47:57;;;;;;;2.50;0.93;;;13.10;86.80;;;;;;5026293;28;20583;-47
2023/11/02 03:50:44;;;;;;;5.60;1.17;;;13.10;86.60;;;;;;5029136;28;20463;-46
2023/11/02 03:53:23;;;;;;;1.23;0.70;;;13.10;86.50;;;;;;5028941;28;20448;-48
2023/11/02 03:56:10;;;;;;;1.70;0.70;;;13.10;86.70;;;;;;5028289;28;20473;-50
2023/11/02 03:58:51;;;;;;;1.97;0.90;;;13.10;86.30;;;;;;5030672;28;20431;-48
2023/11/02 04:01:26;;;;;;;4.40;1.20;;;13.10;86.50;;;;;;5026294;28;20479;-47
2023/11/02 04:04:06;;;;;;;2.03;0.80;;;13.10;86.40;;;;;;5029141;28;20805;-46
2023/11/02 04:06:46;;;;;;;1.40;0.60;;;13.10;86.50;;;;;;5029629;28;20459;-46
2023/11/02 04:09:20;;;;;;;2.57;1.10;;;13.10;86.30;;;;;;5005467;28;20518;-46
2023/11/02 04:12:00;;;;;;;2.30;0.83;;;13.10;86.30;;;;;;5030216;28;20430;-47
2023/11/02 04:14:30;;;;;;;1.60;0.80;;;13.10;86.80;;;;;;5028014;28;20458;-46
2023/11/02 04:16:58;;;;;;;1.63;0.90;;;13.10;87.00;;;;;;5026256;28;20551;-47
2023/11/02 04:19:26;;;;;;;1.30;0.80;;;13.10;86.40;;;;;;5027129;28;20483;-47
2023/11/02 04:21:55;;;;;;;1.70;0.73;;;13.10;86.40;;;;;;5010331;28;20468;-45
2023/11/02 04:24:25;;;;;;;2.10;0.80;;;13.10;87.00;;;;;;5027739;28;20981;-48
2023/11/02 04:26:53;;;;;;;4.70;0.73;;;13.10;86.60;;;;;;5029462;28;20819;-47
2023/11/02 04:29:30;;;;;;;2.73;0.80;;;13.10;86.30;;;;;;5028079;28;20489;-47
2023/11/02 04:31:59;;;;;;;2.30;0.80;;;13.10;86.30;;;;;;5024862;28;20442;-48
2023/11/02 04:34:28;;;;;;;1.50;0.60;;;13.10;86.40;;;;;;5010167;28;20557;-48
2023/11/02 04:36:57;;;;;;;2.27;0.97;;;13.10;86.30;;;;;;5028603;28;20470;-47
2023/11/02 04:39:27;;;;;;;1.20;0.60;;;13.10;86.30;;;;;;5025983;28;20980;-46
2023/11/02 04:41:57;;;;;;;5.13;1.10;;;13.10;87.60;;;;;;5027669;28;20461;-46
2023/11/02 04:44:25;;;;;;;1.10;0.53;;;13.10;86.40;;;;;;5029292;28;20456;-47
2023/11/02 04:46:54;;;;;;;3.30;0.97;;;13.10;86.40;;;;;;5004753;28;20471;-47
2023/11/02 04:49:22;;;;;;;1.93;0.90;;;13.10;86.30;;;;;;5026702;28;20484;-46
2023/11/02 04:51:57;;;;;;;2.10;0.70;;;13.00;86.30;;;;;;5028961;28;20802;-46
2023/11/02 04:54:27;;;;;;;1.93;0.77;;;13.00;86.30;;;;;;5026622;28;20465;-48
2023/11/02 04:56:56;;;;;;;1.40;0.80;;;13.00;87.50;;;;;;5025427;28;20459;-47
2023/11/02 04:59:24;;;;;;;1.37;0.70;;;13.00;86.40;;;;;;5025359;28;20472;-47
2023/11/02 05:01:52;;;;;;;1.40;0.60;;;13.00;86.30;;;;;;5024977;28;20499;-48
2023/11/02 05:04:28;;;;;;;2.40;0.83;;;13.00;86.30;;;;;;5009648;28;20982;-46
2023/11/02 05:06:56;;;;;;;3.70;1.20;;;13.00;86.50;;;;;;5023412;28;20466;-48
2023/11/02 05:09:25;;;;;;;2.40;0.77;;;13.00;86.40;;;;;;5009216;28;20477;-45
2023/11/02 05:11:55;;;;;;;1.47;0.70;;;13.00;86.50;;;;;;5031246;28;20488;-49
2023/11/02 05:14:23;;;;;;;1.97;0.70;;;13.00;86.30;;;;;;5009477;28;20464;-46
2023/11/02 05:16:51;;;;;;;1.93;0.77;;;13.00;86.80;;;;;;5010226;28;20725;-47
2023/11/02 05:19:19;;;;;;;2.23;0.80;;;13.00;86.80;;;;;;5021578;28;20470;-46
2023/11/02 05:21:47;;;;;;;3.03;0.80;;;13.00;86.60;;;;;;5027305;28;20435;-47
2023/11/02 05:24:15;;;;;;;2.33;0.67;;;13.00;86.70;;;;;;5023972;28;20467;-48
2023/11/02 05:26:44;;;;;;;1.97;0.70;;;13.00;86.80;;;;;;5027511;28;20463;-47
2023/11/02 05:29:13;;;;;;;2.10;1.10;;;13.00;86.90;;;;;;5028527;28;20449;-47
2023/11/02 05:31:43;;;;;;;1.00;0.40;;;13.10;87.20;;;;;;5026447;28;20542;-47
2023/11/02 05:34:11;;;;;;;1.40;0.70;;;13.00;87.20;;;;;;5026305;28;20459;-46
2023/11/02 05:36:40;;;;;;;1.50;0.60;;;13.10;87.10;;;;;;5027310;28;20466;-48
2023/11/02 05:39:08;;;;;;;1.30;0.47;;;13.00;86.80;;;;;;5023324;28;20962;-48
2023/11/02 05:41:39;;;;;;;1.50;0.67;;;13.10;87.10;;;;;;5028625;28;20417;-47
2023/11/02 05:44:08;;;;;;;2.17;0.80;;;13.00;87.10;;;;;;5026444;28;20428;-46
2023/11/02 05:46:38;;;;;;;3.13;0.77;;;13.00;87.20;;;;;;5026200;28;20448;-47
2023/11/02 05:49:06;;;;;;;1.70;0.70;;;13.00;87.10;;;;;;5026830;28;20435;-48
2023/11/02 05:51:34;;;;;;;1.17;0.70;;;13.10;87.30;;;;;;5028768;28;20438;-47
2023/11/02 05:54:02;;;;;;;1.67;0.73;;;13.00;87.30;;;;;;5022159;28;20523;-48
2023/11/02 05:56:31;;;;;;;2.00;1.10;;;13.00;87.40;;;;;;5025876;28;20459;-47
2023/11/02 05:58:59;;;;;;;3.60;0.60;;;13.00;87.40;;;;;;5026215;28;20444;-47
2023/11/02 06:01:27;;;;;;;1.67;0.80;;;13.00;87.40;;;;;;5026617;28;20452;-46
2023/11/02 06:03:57;;;;;;;1.63;0.90;;;13.00;87.40;;;;;;5027284;28;21005;-47
2023/11/02 06:06:26;;;;;;;1.93;0.73;;;13.10;87.50;;;;;;5028421;28;20448;-46
2023/11/02 06:08:56;;;;;;;2.60;0.97;;;13.00;87.50;;;;;;5026162;28;20553;-47
2023/11/02 06:11:24;;;;;;;1.30;0.80;;;13.00;87.40;;;;;;5026765;28;20488;-46
2023/11/02 06:13:53;;;;;;;1.67;1.00;;;13.10;87.60;;;;;;5026415;28;20437;-48
2023/11/02 06:16:23;;;;;;;1.30;0.63;;;13.00;87.50;;;;;;5024495;28;20852;-46
2023/11/02 06:18:51;;;;;;;1.10;0.60;;;13.10;87.60;;;;;;5009573;28;20558;-47
2023/11/02 06:21:21;;;;;;;2.10;0.60;;;13.00;87.50;;;;;;5026488;28;20936;-46
2023/11/02 06:23:49;;;;;;;1.50;0.70;;;13.00;87.70;;;;;;5025607;28;20473;-47
2023/11/02 06:26:18;;;;;;;2.20;0.70;;;13.10;87.60;;;;;;5027078;28;20861;-46
2023/11/02 06:28:48;;;;;;;1.10;0.50;;;13.10;87.90;;;;;;5028409;28;20502;-50
2023/11/02 06:31:16;;;;;;;1.00;0.53;;;13.10;87.90;;;;;;5006358;28;20436;-47
2023/11/02 06:33:45;;;;;;;1.17;0.57;;;13.10;88.00;;;;;;5025071;28;20479;-48
2023/11/02 06:36:13;;;;;;;1.10;0.70;;;13.10;87.90;;;;;;5025701;28;20468;-47
2023/11/02 06:38:43;;;;;;;1.77;0.80;;;13.00;87.90;;;;;;5027825;28;20957;-48
2023/11/02 06:41:11;;;;;;;2.40;0.70;;;13.10;88.00;;;;;;5025677;28;20558;-46
2023/11/02 06:43:42;;;;;;;1.03;0.50;;;13.00;87.90;;;;;;5027981;28;20514;-46
2023/11/02 06:46:10;;;;;;;1.47;0.67;;;13.00;87.90;;;;;;5025408;28;20461;-46
2023/11/02 06:48:39;;;;;;;1.20;0.60;;;13.10;87.90;;;;;;5026107;28;20460;-46
2023/11/02 06:51:08;;;;;;;4.10;0.70;;;13.00;87.90;;;;;;5024566;28;20480;-47
2023/11/02 06:53:37;;;;;;;1.20;0.60;;;13.10;87.90;;;;;;5025923;28;20508;-46
2023/11/02 06:56:08;;;;;;;1.73;0.70;;;13.00;87.80;;;;;;5025537;28;20467;-46
2023/11/02 06:58:36;;;;;;;1.93;0.70;;;13.00;87.70;;;;;;5029718;28;20426;-46
2023/11/02 07:01:05;;;;;;;1.70;0.60;;;13.10;87.80;;;;;;5026363;28;20463;-47
2023/11/02 07:03:33;;;;;;;1.30;0.80;;;13.10;87.80;;;;;;5026783;28;21710;-46
2023/11/02 07:06:02;;;;;;;1.50;0.57;;;13.10;87.50;;;;;;5026098;28;20474;-47
2023/11/02 07:08:31;;;;;;;3.07;0.93;;;13.00;87.60;;;;;;5026417;28;20983;-46
2023/11/02 07:11:00;;;;;;;1.20;0.57;;;13.00;87.50;;;;;;5025024;28;20532;-47
2023/11/02 07:13:30;;;;;;;1.40;0.80;;;13.00;87.50;;;;;;5025860;28;20439;-48
2023/11/02 07:15:59;;;;;;;1.40;0.60;;;13.00;87.50;;;;;;5025188;28;20459;-46
2023/11/02 07:18:27;;;;;;;1.67;0.87;;;13.10;87.60;;;;;;5028454;28;20429;-46
2023/11/02 07:20:56;;;;;;;1.73;0.80;;;13.00;87.30;;;;;;5008315;28;20538;-49
2023/11/02 07:23:24;;;;;;;2.30;0.90;;;13.10;87.60;;;;;;5025631;28;20810;-47
2023/11/02 07:25:52;;;;;;;3.07;0.70;;;13.00;87.40;;;;;;5025746;28;20959;-47
2023/11/02 07:28:21;;;;;;;1.53;0.50;;;13.10;87.40;;;;;;5028221;28;20440;-48
2023/11/02 07:30:52;;;;;;;2.03;0.93;;;13.10;87.50;;;;;;5028766;28;20545;-48
2023/11/02 07:33:21;;;;;;;1.43;0.60;;;13.10;87.40;;;;;;5029180;28;20440;-47
2023/11/02 07:35:49;;;;;;;2.23;1.00;;;13.10;87.50;;;;;;5010897;28;20835;-46
2023/11/02 07:38:18;;;;;;;2.17;0.70;;;13.00;87.50;;;;;;5029567;28;20455;-46
2023/11/02 07:40:46;;;;;;;1.50;0.70;;;13.10;87.50;;;;;;5030293;28;20467;-48
2023/11/02 07:43:14;;;;;;;2.03;0.90;;;13.10;87.40;;;;;;5030084;28;20464;-46
2023/11/02 07:45:43;;;;;;;2.33;1.17;;;13.00;87.30;;;;;;5029579;28;20522;-46
2023/11/02 07:48:12;;;;;;;1.67;1.10;;;13.00;87.30;;;;;;5028770;28;20448;-46
2023/11/02 07:50:40;;;;;;;2.20;0.97;;;13.10;87.30;;;;;;5029958;28;20985;-46
2023/11/02 07:53:09;;;;;;;1.50;0.97;;;13.10;87.20;;;;;;5027428;28;20432;-49
2023/11/02 07:55:37;;;;;;;2.60;0.90;;;13.10;87.30;;;;;;5026870;28;20467;-47
2023/11/02 07:58:08;;;;;;;1.50;0.80;;;13.10;87.30;;;;;;5013163;28;20413;-45
2023/11/02 08:00:36;;;;;;;1.60;0.90;;;13.10;87.40;;;;;;5030102;28;20477;-46
2023/11/02 08:03:04;;;;;;;3.40;1.00;;;13.10;87.50;;;;;;5026847;28;20446;-48
2023/11/02 08:05:34;;;;;;;1.70;0.90;;;13.10;87.50;;;;;;5012688;28;20471;-46
2023/11/02 08:08:02;;;;;;;1.53;0.93;;;13.10;87.60;;;;;;5029054;28;20424;-46
2023/11/02 08:10:30;;;;;;;1.53;0.60;;;13.10;87.60;;;;;;5028256;28;20463;-45
2023/11/02 08:13:02;;;;;;;2.10;1.00;;;13.10;87.70;;;;;;5029862;28;20514;-46
2023/11/02 08:15:30;;;;;;;2.50;0.80;;;13.10;87.60;;;;;;5011777;28;20477;-47
2023/11/02 08:17:59;;;;;;;1.77;0.70;;;13.10;87.70;;;;;;5003506;28;20441;-46
2023/11/02 08:20:28;;;;;;;2.37;1.10;;;13.10;87.50;;;;;;5026626;28;20457;-47
2023/11/02 08:22:57;;;;;;;1.27;0.70;;;13.10;87.70;;;;;;5027976;28;20440;-50
2023/11/02 08:25:26;;;;;;;2.20;1.10;;;13.10;87.70;;;;;;5028374;28;20989;-46
2023/11/02 08:27:57;;;;;;;1.60;0.90;;;13.10;87.60;;;;;;5032015;28;20430;-46
2023/11/02 08:30:29;;;;;;;2.20;0.80;;;13.10;87.70;;;;;;5027576;28;20464;-47
2023/11/02 08:33:00;;;;;;;1.60;0.80;;;13.10;87.70;;;;;;5009584;28;20444;-46
2023/11/02 08:35:28;;;;;;;1.83;0.90;;;13.10;87.80;;;;;;5026175;28;20547;-45
2023/11/02 08:37:57;;;;;;;3.67;0.80;;;13.10;87.90;;;;;;5029880;28;20434;-48
2023/11/02 08:40:26;;;;;;;2.00;0.77;;;13.10;87.90;;;;;;5027754;28;20459;-47
2023/11/02 08:42:54;;;;;;;3.10;1.10;;;13.10;88.10;;;;;;5029056;28;20442;-47
2023/11/02 08:45:22;;;;;;;1.80;0.80;;;13.10;87.90;;;;;;5027772;28;20479;-46
2023/11/02 08:47:50;;;;;;;1.50;0.77;;;13.10;88.20;;;;;;5028962;28;21010;-46
2023/11/02 08:50:20;;;;;;;2.00;0.70;;;13.10;88.30;;;;;;5027284;28;20456;-46
2023/11/02 08:52:48;;;;;;;3.67;1.40;;;13.10;88.30;;;;;;5028863;28;20440;-46
2023/11/02 08:55:18;;;;;;;1.60;0.80;;;13.00;88.40;;;;;;5026244;28;20482;-47
2023/11/02 08:57:46;;;;;;;1.60;0.70;;;13.10;88.30;;;;;;5030025;28;20427;-47
2023/11/02 09:00:19;;;;;;;3.00;0.70;;;13.10;88.20;;;;;;5028805;28;21311;-46
2023/11/02 09:02:48;;;;;;;1.97;0.87;;;13.10;88.00;;;;;;5028722;28;20463;-47
2023/11/02 09:05:16;;;;;;;1.77;0.83;;;13.10;88.00;;;;;;5025734;28;20485;-46
2023/11/02 09:07:44;;;;;;;1.60;0.80;;;13.10;88.00;;;;;;5028625;28;20512;-45
2023/11/02 09:10:12;;;;;;;2.37;0.90;;;13.10;88.00;;;;;;5024398;28;20467;-46
2023/11/02 09:12:42;;;;;;;2.77;0.83;;;13.10;88.10;;;;;;5022557;28;20444;-46
2023/11/02 09:15:10;;;;;;;1.67;0.80;;;13.10;88.10;;;;;;5028283;28;20483;-47
2023/11/02 09:17:39;;;;;;;1.70;0.70;;;13.10;88.20;;;;;;5025899;28;20438;-46
2023/11/02 09:20:10;;;;;;;4.07;0.70;;;13.10;88.00;;;;;;5027179;28;20855;-48
2023/11/02 09:22:38;;;;;;;1.30;0.70;;;13.10;88.10;;;;;;5011522;28;20532;-46
2023/11/02 09:25:07;;;;;;;4.00;0.80;;;13.10;88.00;;;;;;5025797;28;20470;-46
2023/11/02 09:27:38;;;;;;;2.00;0.50;;;13.10;87.80;;;;;;5028050;28;20436;-45
2023/11/02 09:30:09;;;;;;;1.47;0.80;;;13.10;87.90;;;;;;5027771;28;20480;-46
2023/11/02 09:32:37;;;;;;;1.50;0.93;;;13.20;87.70;;;;;;5025574;28;20744;-45
2023/11/02 09:35:06;;;;;;;1.97;0.77;;;13.20;87.60;;;;;;5025291;28;20815;-46
2023/11/02 09:37:34;;;;;;;2.23;0.70;;;13.20;87.70;;;;;;5011833;28;20449;-46
2023/11/02 09:40:06;;;;;;;3.43;0.83;;;13.20;87.50;;;;;;5024143;28;21023;-47
2023/11/02 09:42:34;;;;;;;2.23;0.90;;;13.20;87.40;;;;;;5026022;28;20429;-46
2023/11/02 09:45:06;;;;;;;1.80;0.80;;;13.20;87.00;;;;;;5023026;28;21126;-46
2023/11/02 09:47:35;;;;;;;1.47;0.73;;;13.20;87.10;;;;;;5023173;28;20441;-48
2023/11/02 09:50:04;;;;;;;2.20;0.90;;;13.20;87.00;;;;;;5028860;28;20467;-46
2023/11/02 09:52:33;;;;;;;2.10;0.80;;;13.20;87.10;;;;;;5024730;28;20452;-46
2023/11/02 09:55:07;;;;;;;1.40;0.70;;;13.20;87.00;;;;;;5024861;28;20468;-47
2023/11/02 09:57:37;;;;;;;3.80;1.00;;;13.20;86.90;;;;;;5025924;28;20441;-46
2023/11/02 10:00:08;;;;;;;2.40;0.90;;;13.20;86.80;;;;;;5026550;28;21049;-48
2023/11/02 10:02:41;;;;;;;1.93;0.73;;;13.20;87.30;;;;;;5025138;28;20821;-46
2023/11/02 10:05:10;;;;;;;1.33;0.70;;;13.20;87.00;;;;;;5023742;28;21021;-46
2023/11/02 10:07:38;;;;;;;3.60;1.03;;;13.20;87.10;;;;;;5027424;28;20433;-46
2023/11/02 10:10:08;;;;;;;3.43;1.87;;;13.20;87.30;;;;;;5023733;28;20470;-47
2023/11/02 10:12:40;;;;;;;2.27;0.90;;;13.20;87.20;;;;;;5028370;28;20428;-46
2023/11/02 10:15:11;;;;;;;1.07;0.57;;;13.20;87.30;;;;;;5024257;28;20485;-46
2023/11/02 10:17:41;;;;;;;1.60;0.60;;;13.20;87.10;;;;;;5026925;28;20415;-47
2023/11/02 10:20:11;;;;;;;2.10;1.10;;;13.20;87.20;;;;;;5024089;28;20526;-46
2023/11/02 10:22:45;;;;;;;1.60;0.80;;;13.20;86.50;;;;;;5026836;28;20880;-47
2023/11/02 10:25:14;;;;;;;2.60;0.80;;;13.20;86.50;;;;;;5022626;28;20512;-46
2023/11/02 10:27:43;;;;;;;4.63;1.40;;;13.20;86.50;;;;;;5027262;28;20427;-46
2023/11/02 10:30:13;;;;;;;4.00;1.00;;;13.20;86.50;;;;;;5025288;28;20870;-47
2023/11/02 10:32:43;;;;;;;1.23;0.90;;;13.20;86.40;;;;;;5025931;28;20453;-47
2023/11/02 10:35:11;;;;;;;1.37;0.80;;;13.30;86.60;;;;;;5026328;28;20489;-47
2023/11/02 10:37:39;;;;;;;1.57;0.70;;;13.20;86.40;;;;;;5027965;28;20426;-47
2023/11/02 10:40:10;;;;;;;2.40;0.93;;;13.30;86.50;;;;;;5023374;28;20849;-46
2023/11/02 10:42:39;;;;;;;1.90;1.00;;;13.30;86.50;;;;;;5024182;28;20531;-47
2023/11/02 10:45:13;;;;;;;2.40;0.90;;;13.30;86.60;;;;;;5024254;28;21015;-48
2023/11/02 10:47:45;;;;;;;2.60;0.97;;;13.30;86.50;;;;;;5021673;28;20448;-47
2023/11/02 10:50:21;;;;;;;1.30;0.90;;;13.30;86.10;;;;;;5007058;28;20480;-47
2023/11/02 10:52:57;;;;;;;1.70;0.93;;;13.30;86.50;;;;;;5004411;28;20445;-47
2023/11/02 10:55:31;;;;;;;5.70;1.07;;;13.30;86.60;;;;;;5007595;28;20561;-47
2023/11/02 10:58:02;;;;;;;1.73;0.83;;;13.30;86.00;;;;;;4990121;28;20439;-50
2023/11/02 11:00:34;;;;;;;6.63;1.43;;;13.30;86.60;;;;;;5006073;28;20466;-49
2023/11/02 11:03:10;;;;;;;3.20;1.40;;;13.30;85.40;;;;;;5004961;28;20442;-47
2023/11/02 11:05:40;;;;;;;1.87;1.10;;;13.30;84.50;;;;;;5006135;28;20571;-46
2023/11/02 11:08:10;;;;;;;2.40;0.87;;;13.30;83.50;;;;;;5007784;28;20425;-47
2023/11/02 11:10:40;;;;;;;1.77;0.90;;;13.30;84.30;;;;;;5007609;28;20512;-46
2023/11/02 11:13:10;;;;;;;3.03;0.90;;;13.30;84.20;;;;;;5011688;28;20419;-46
2023/11/02 11:15:38;;;;;;;3.80;1.03;;;13.30;84.40;;;;;;5011646;28;20595;-46
2023/11/02 11:18:09;;;;;;;2.00;1.00;;;13.30;83.00;;;;;;5010612;28;20826;-47
2023/11/02 11:20:39;;;;;;;2.17;0.93;;;13.30;83.10;;;;;;5010167;28;21164;-47
2023/11/02 11:23:08;;;;;;;5.20;1.10;;;13.30;83.10;;;;;;5009159;28;20807;-46
2023/11/02 11:25:57;;;;;;;2.80;0.70;;;13.30;82.90;;;;;;4991250;28;20484;-46
2023/11/02 11:28:30;;;;;;;3.17;0.90;;;13.30;83.10;;;;;;5011098;28;20435;-46
2023/11/02 11:30:59;;;;;;;2.33;0.93;;;13.30;83.10;;;;;;4992339;28;20463;-46
2023/11/02 11:33:52;;;;;;;3.47;1.10;;;13.30;83.50;;;;;;5010839;28;21012;-48
2023/11/02 11:36:28;;;;;;;4.37;1.13;;;13.30;83.50;;;;;;5009291;28;20549;-46
2023/11/02 11:38:59;;;;;;;3.50;1.10;;;13.30;82.70;;;;;;4991209;28;20455;-45
2023/11/02 11:41:45;;;;;;;1.97;1.13;;;13.30;82.30;;;;;;5009706;28;20930;-46
2023/11/02 11:44:18;;;;;;;3.10;1.00;;;13.30;83.90;;;;;;5008447;28;21041;-45
2023/11/02 11:46:51;;;;;;;3.33;0.90;;;13.40;84.00;;;;;;5008204;28;20475;-46
2023/11/02 11:49:48;;;;;;;2.73;1.00;;;13.30;83.50;;;;;;5021959;28;20875;-47
2023/11/02 11:52:37;;;;;;;2.93;1.10;;;13.30;84.00;;;;;;5029141;28;20555;-47
2023/11/02 11:55:36;;;;;;;2.10;0.77;;;13.30;84.20;;;;;;5027631;28;20568;-47
2023/11/02 11:58:10;;;;;;;3.30;1.00;;;13.30;83.80;;;;;;5030280;28;20434;-46
2023/11/02 12:01:14;;;;;;;4.33;1.30;;;13.30;83.60;;;;;;5028981;28;20475;-46
2023/11/02 12:03:44;;;;;;;2.07;0.90;;;13.30;84.10;;;;;;5028915;28;20444;-46
2023/11/02 12:06:37;;;;;;;2.40;0.90;;;13.30;83.10;;;;;;5027934;28;20471;-46
2023/11/02 12:09:32;;;;;;;7.17;1.10;;;13.30;83.20;;;;;;5025266;28;20912;-47
2023/11/02 12:12:39;;;;;;;4.00;1.50;;;13.30;81.80;;;;;;5029716;28;20432;-46
2023/11/02 12:15:21;;;;;;;3.30;1.13;;;13.30;82.10;;;;;;5027097;28;21007;-46
2023/11/02 12:18:04;;;;;;;1.80;0.70;;;13.30;82.80;;;;;;5027512;28;20444;-47
2023/11/02 12:21:24;;;;;;;3.17;1.37;;;13.30;82.10;;;;;;5015458;28;20487;-46
2023/11/02 12:24:13;;;;;;;3.93;1.67;;;13.30;83.00;;;;;;5025018;28;20456;-49
2023/11/02 12:26:43;;;;;;;3.27;0.77;;;13.40;83.30;;;;;;5027895;28;20508;-52
2023/11/02 12:29:11;;;;;;;1.93;0.93;;;13.30;83.10;;;;;;5008002;28;20439;-47
2023/11/02 12:31:43;;;;;;;3.37;1.20;;;13.30;83.00;;;;;;5029437;28;20449;-46
2023/11/02 12:34:18;;;;;;;4.47;1.10;;;13.30;81.80;;;;;;5007724;28;20539;-47
2023/11/02 12:36:47;;;;;;;4.40;1.10;;;13.30;82.90;;;;;;5011908;28;20472;-46
2023/11/02 12:39:18;;;;;;;2.13;1.10;;;13.40;82.40;;;;;;5026116;28;20488;-48
2023/11/02 12:41:51;;;;;;;3.30;1.30;;;13.40;83.10;;;;;;5029677;28;20428;-47
2023/11/02 12:44:26;;;;;;;2.87;1.33;;;13.40;83.30;;;;;;5028888;28;20553;-47
2023/11/02 12:47:06;;;;;;;3.40;1.40;;;13.30;83.10;;;;;;5007085;28;20500;-46
2023/11/02 12:49:39;;;;;;;4.70;0.90;;;13.40;83.20;;;;;;5010465;28;20456;-46
2023/11/02 12:52:09;;;;;;;4.40;0.93;;;13.40;83.10;;;;;;5025799;28;20573;-47
2023/11/02 12:54:59;;;;;;;3.53;1.00;;;13.40;83.10;;;;;;5009683;28;20472;-46
2023/11/02 12:57:27;;;;;;;2.40;1.20;;;13.30;83.00;;;;;;5028580;28;20931;-45
2023/11/02 13:00:05;;;;;;;3.63;0.77;;;13.40;83.00;;;;;;5026945;28;20468;-46
2023/11/02 13:02:41;;;;;;;1.90;1.00;;;13.40;83.10;;;;;;5024267;28;20474;-47
2023/11/02 13:05:18;;;;;;;3.57;1.37;;;13.30;82.80;;;;;;5027665;28;20470;-46
2023/11/02 13:07:51;;;;;;;2.13;0.97;;;13.40;83.10;;;;;;5027557;28;20471;-46
2023/11/02 13:10:24;;;;;;;1.43;1.07;;;13.40;83.20;;;;;;5028547;28;20475;-46
2023/11/02 13:12:54;;;;;;;2.80;1.40;;;13.30;83.10;;;;;;5028660;28;20431;-47
2023/11/02 13:15:27;;;;;;;3.07;1.27;;;13.30;83.20;;;;;;5028350;28;21066;-47
2023/11/02 13:17:59;;;;;;;2.17;0.80;;;13.40;83.30;;;;;;5026689;28;20466;-46
2023/11/02 13:20:36;;;;;;;2.20;1.20;;;13.40;83.10;;;;;;5027928;28;20465;-47